Time;durP1;ratioP1;P1;durP2;ratioP2;P2;SDS_P1;SDS_P2;PMS_P1;PMS_P2;Temp;Humidity;BMP_temperature;BMP_pressure;BME280_temperature;BME280_humidity;BME280_pressure;Samples;Min_cycle;Max_cycle;Signal;HPM_P1;HPM_P2
2020/12/19 00:00:38;;;;;;;26.53;20.60;;;5.60;99.90;;;;;;4972794;28;20717;-80
2020/12/19 00:03:06;;;;;;;26.03;20.90;;;5.60;99.90;;;;;;4970264;28;20280;-81
2020/12/19 00:05:32;;;;;;;27.17;22.03;;;5.60;99.90;;;;;;4950705;28;20214;-80
2020/12/19 00:07:58;;;;;;;24.50;20.17;;;5.60;99.90;;;;;;4953920;28;20225;-80
2020/12/19 00:10:26;;;;;;;25.93;21.50;;;5.60;99.90;;;;;;4952923;28;20242;-80
2020/12/19 00:12:57;;;;;;;29.77;23.27;;;5.70;99.90;;;;;;4971364;28;20356;-81
2020/12/19 00:15:23;;;;;;;27.70;22.73;;;5.70;99.90;;;;;;4973251;28;20201;-80
2020/12/19 00:17:50;;;;;;;26.70;21.97;;;5.60;99.90;;;;;;4957024;28;20195;-81
2020/12/19 00:20:16;;;;;;;29.37;22.47;;;5.60;99.90;;;;;;4953613;28;20249;-81
2020/12/19 00:22:44;;;;;;;25.33;19.80;;;5.40;99.90;;;;;;4953612;28;20217;-80
2020/12/19 00:25:11;;;;;;;25.73;21.07;;;5.50;99.90;;;;;;4970849;28;20201;-81
2020/12/19 00:27:39;;;;;;;23.40;20.17;;;5.50;99.90;;;;;;4961088;28;20255;-80
2020/12/19 00:30:07;;;;;;;27.20;20.67;;;5.40;99.90;;;;;;4972277;28;20301;-81
2020/12/19 00:32:38;;;;;;;24.23;21.27;;;5.60;99.90;;;;;;4969007;28;20212;-80
2020/12/19 00:35:05;;;;;;;24.30;19.97;;;5.40;99.90;;;;;;4971840;28;20190;-80
2020/12/19 00:37:32;;;;;;;23.73;20.20;;;5.40;99.90;;;;;;4971613;28;20195;-80
2020/12/19 00:39:59;;;;;;;23.33;19.93;;;5.40;99.90;;;;;;4972205;28;20221;-80
2020/12/19 00:42:25;;;;;;;26.60;20.53;;;5.40;99.90;;;;;;4966917;28;20207;-80
2020/12/19 00:44:52;;;;;;;26.63;20.23;;;5.40;99.90;;;;;;4959473;28;20702;-80
2020/12/19 00:47:21;;;;;;;26.27;21.83;;;5.50;99.90;;;;;;4958386;28;20203;-80
2020/12/19 00:49:47;;;;;;;22.90;18.67;;;5.70;99.90;;;;;;4959385;28;20225;-80
2020/12/19 00:52:14;;;;;;;26.13;21.38;;;5.50;99.90;;;;;;4975282;28;20203;-82
2020/12/19 00:54:40;;;;;;;24.53;21.40;;;5.60;99.90;;;;;;4976939;28;20226;-82
2020/12/19 00:57:07;;;;;;;24.23;20.33;;;5.50;99.90;;;;;;4976693;28;20218;-81
2020/12/19 00:59:33;;;;;;;24.53;20.07;;;5.60;99.90;;;;;;4969165;28;20191;-81
2020/12/19 01:02:01;;;;;;;26.23;21.47;;;5.60;99.90;;;;;;4976376;28;20308;-80
2020/12/19 01:04:27;;;;;;;25.43;19.80;;;5.70;99.90;;;;;;4972322;28;20215;-81
2020/12/19 01:06:53;;;;;;;25.63;20.17;;;5.60;99.90;;;;;;4958081;28;20635;-81
2020/12/19 01:09:22;;;;;;;28.10;21.77;;;5.60;99.90;;;;;;4972975;28;20201;-81
2020/12/19 01:11:48;;;;;;;25.65;20.05;;;5.60;99.90;;;;;;4964569;28;20228;-80
2020/12/19 01:14:15;;;;;;;25.20;19.83;;;5.60;99.90;;;;;;4970863;28;20616;-81
2020/12/19 01:16:41;;;;;;;23.40;20.80;;;5.60;99.90;;;;;;4971344;28;20686;-80
2020/12/19 01:19:08;;;;;;;26.77;20.57;;;5.70;99.90;;;;;;4963798;28;20202;-80
2020/12/19 01:21:35;;;;;;;24.17;19.33;;;5.70;99.90;;;;;;4983435;28;20292;-82
2020/12/19 01:24:02;;;;;;;25.17;20.47;;;5.60;99.90;;;;;;4994835;28;20221;-81
2020/12/19 01:26:28;;;;;;;28.30;22.60;;;5.60;99.90;;;;;;4991969;28;20220;-84
2020/12/19 01:28:55;;;;;;;26.27;20.90;;;5.60;99.90;;;;;;4995638;28;20186;-80
2020/12/19 01:31:26;;;;;;;26.43;21.43;;;5.60;99.90;;;;;;4994770;28;20209;-82
2020/12/19 01:33:53;;;;;;;23.90;21.23;;;5.70;99.90;;;;;;4994946;28;20177;-82
2020/12/19 01:36:21;;;;;;;28.87;21.13;;;5.80;99.90;;;;;;4974588;28;20211;-79
2020/12/19 01:38:49;;;;;;;28.13;21.47;;;5.80;99.90;;;;;;4955730;28;20272;-81
2020/12/19 01:41:16;;;;;;;26.40;20.60;;;5.80;99.90;;;;;;4960082;28;20218;-80
2020/12/19 01:43:49;;;;;;;26.00;20.63;;;5.80;99.90;;;;;;4967931;28;20203;-80
2020/12/19 01:46:41;;;;;;;27.83;21.77;;;5.70;99.90;;;;;;4974601;28;20285;-79
2020/12/19 01:49:07;;;;;;;26.87;21.20;;;5.70;99.90;;;;;;4954094;29;20207;-77
2020/12/19 01:51:35;;;;;;;27.93;19.93;;;5.70;99.90;;;;;;4962482;28;20228;-78
2020/12/19 01:54:07;;;;;;;28.17;20.93;;;5.70;99.90;;;;;;4991055;28;20314;-79
2020/12/19 01:56:47;;;;;;;28.73;20.60;;;5.70;99.90;;;;;;4977762;28;20175;-78
2020/12/19 01:59:15;;;;;;;26.10;20.30;;;5.70;99.90;;;;;;4979690;28;20194;-78
2020/12/19 02:01:43;;;;;;;24.00;20.47;;;5.60;99.90;;;;;;4964258;28;20222;-77
2020/12/19 02:04:10;;;;;;;25.03;19.40;;;5.50;99.90;;;;;;4967130;28;20688;-79
2020/12/19 02:06:38;;;;;;;26.53;20.67;;;5.50;99.90;;;;;;4969223;28;20201;-78
2020/12/19 02:09:05;;;;;;;26.70;20.27;;;5.50;99.90;;;;;;4969470;28;20206;-78
2020/12/19 02:11:31;;;;;;;29.43;20.53;;;5.50;99.90;;;;;;4970354;28;20229;-77
2020/12/19 02:13:58;;;;;;;29.33;21.50;;;5.60;99.90;;;;;;4966749;28;20287;-78
2020/12/19 02:16:24;;;;;;;26.83;22.50;;;5.50;99.90;;;;;;4969602;28;20309;-78
2020/12/19 02:18:51;;;;;;;23.23;20.23;;;5.60;99.90;;;;;;4970902;28;20879;-78
2020/12/19 02:21:19;;;;;;;24.73;20.07;;;5.50;99.90;;;;;;4963081;28;20231;-77
2020/12/19 02:23:46;;;;;;;28.80;22.00;;;5.60;99.90;;;;;;4954007;28;20202;-78
2020/12/19 02:26:13;;;;;;;28.80;23.33;;;5.40;99.90;;;;;;4957777;28;20201;-78
2020/12/19 02:28:39;;;;;;;28.90;22.10;;;5.40;99.90;;;;;;4989409;28;20698;-81
2020/12/19 02:31:05;;;;;;;34.53;22.53;;;5.40;99.90;;;;;;4994293;28;20212;-80
2020/12/19 02:33:32;;;;;;;27.43;20.00;;;5.30;99.90;;;;;;4974321;28;20743;-80
2020/12/19 02:35:59;;;;;;;26.23;20.87;;;5.30;99.90;;;;;;4962781;28;20673;-80
2020/12/19 02:38:25;;;;;;;30.70;21.67;;;5.20;99.90;;;;;;4972971;28;20773;-80
2020/12/19 02:40:53;;;;;;;27.37;22.17;;;5.20;99.90;;;;;;4980562;28;20221;-81
2020/12/19 02:43:19;;;;;;;28.40;21.63;;;5.20;99.90;;;;;;4995999;28;20234;-81
2020/12/19 02:45:46;;;;;;;28.37;20.03;;;5.30;99.90;;;;;;4983369;28;20194;-80
2020/12/19 02:48:12;;;;;;;28.30;20.80;;;5.30;99.90;;;;;;4979877;28;20201;-81
2020/12/19 02:50:39;;;;;;;29.17;22.93;;;5.30;99.90;;;;;;4968805;28;20308;-80
2020/12/19 02:53:05;;;;;;;27.93;21.80;;;5.40;99.90;;;;;;4968395;28;20206;-80
2020/12/19 02:55:31;;;;;;;27.80;21.33;;;5.30;99.90;;;;;;4991140;28;20206;-82
2020/12/19 02:57:59;;;;;;;26.43;20.10;;;5.40;99.90;;;;;;4977798;28;20213;-81
2020/12/19 03:00:25;;;;;;;28.37;20.13;;;5.50;99.90;;;;;;4967039;28;20217;-81
2020/12/19 03:02:52;;;;;;;26.53;19.77;;;5.40;99.90;;;;;;4962438;28;20228;-81
2020/12/19 03:05:19;;;;;;;25.27;21.92;;;5.40;99.90;;;;;;4966687;28;20206;-81
2020/12/19 03:07:45;;;;;;;24.27;19.17;;;5.40;99.90;;;;;;4962780;28;20208;-81
2020/12/19 03:10:12;;;;;;;26.53;21.90;;;5.40;99.90;;;;;;4964949;28;20200;-80
2020/12/19 03:12:38;;;;;;;25.23;20.47;;;5.40;99.90;;;;;;4968847;28;20240;-81
2020/12/19 03:15:06;;;;;;;33.70;22.43;;;5.60;99.90;;;;;;4951196;28;20211;-80
2020/12/19 03:17:32;;;;;;;30.63;22.50;;;5.30;99.90;;;;;;4953558;29;20294;-81
2020/12/19 03:19:59;;;;;;;31.53;23.27;;;5.20;99.90;;;;;;4963382;28;20214;-82
2020/12/19 03:22:25;;;;;;;30.73;23.87;;;5.10;99.90;;;;;;4966399;28;20218;-80
2020/12/19 03:24:52;;;;;;;29.83;23.93;;;5.10;99.90;;;;;;4968926;28;20209;-81
2020/12/19 03:27:18;;;;;;;26.43;22.37;;;5.10;99.90;;;;;;4992666;28;20247;-81
2020/12/19 03:29:44;;;;;;;30.50;22.13;;;5.10;99.90;;;;;;4971182;28;20652;-80
2020/12/19 03:32:12;;;;;;;28.27;23.13;;;5.10;99.90;;;;;;4992558;28;20225;-82
2020/12/19 03:34:38;;;;;;;30.03;23.50;;;5.10;99.90;;;;;;4995477;28;20206;-82
2020/12/19 03:37:05;;;;;;;29.73;23.80;;;5.10;99.90;;;;;;4970275;28;20213;-82
2020/12/19 03:39:32;;;;;;;31.53;24.37;;;5.20;99.90;;;;;;4977148;28;20203;-83
2020/12/19 03:41:58;;;;;;;29.00;22.85;;;5.10;99.90;;;;;;4982180;28;20226;-82
2020/12/19 03:44:25;;;;;;;31.57;24.77;;;5.20;99.90;;;;;;4968491;28;20249;-81
2020/12/19 03:46:51;;;;;;;29.67;24.63;;;5.30;99.90;;;;;;4974418;28;20209;-81
2020/12/19 03:49:19;;;;;;;28.23;23.67;;;5.30;99.90;;;;;;4967482;28;20203;-82
2020/12/19 03:51:45;;;;;;;30.23;24.43;;;5.30;99.90;;;;;;4962645;28;20220;-82
2020/12/19 03:54:11;;;;;;;32.00;24.70;;;5.30;99.90;;;;;;4966322;28;20684;-81
2020/12/19 03:56:38;;;;;;;30.23;24.27;;;5.40;99.90;;;;;;4972616;28;20217;-81
2020/12/19 03:59:04;;;;;;;34.20;25.03;;;5.30;99.90;;;;;;4970616;28;20191;-82
2020/12/19 04:01:31;;;;;;;31.33;24.10;;;5.40;99.90;;;;;;4969723;28;20249;-81
2020/12/19 04:03:57;;;;;;;32.28;24.75;;;5.40;99.90;;;;;;4970504;28;20306;-81
2020/12/19 04:06:25;;;;;;;32.53;24.07;;;5.40;99.90;;;;;;4942803;29;20199;-81
2020/12/19 04:08:51;;;;;;;33.83;26.43;;;5.30;99.90;;;;;;4962474;28;20656;-81
2020/12/19 04:11:18;;;;;;;31.37;24.37;;;5.30;99.90;;;;;;4957618;28;20236;-80
2020/12/19 04:13:44;;;;;;;29.47;24.80;;;5.40;99.90;;;;;;4952657;28;20289;-82
2020/12/19 04:16:11;;;;;;;33.33;25.17;;;5.50;99.90;;;;;;4962389;28;20258;-81
2020/12/19 04:18:37;;;;;;;28.97;23.90;;;5.50;99.90;;;;;;4978190;28;20288;-81
2020/12/19 04:21:06;;;;;;;32.20;25.43;;;5.40;99.90;;;;;;4970948;28;20574;-82
2020/12/19 04:23:34;;;;;;;29.47;23.23;;;5.30;99.90;;;;;;4968796;29;20179;-81
2020/12/19 04:26:00;;;;;;;31.60;24.70;;;5.20;99.90;;;;;;4982942;28;20214;-81
2020/12/19 04:28:29;;;;;;;31.37;24.13;;;5.20;99.90;;;;;;4977678;28;20265;-81
2020/12/19 04:30:55;;;;;;;28.83;23.97;;;5.10;99.90;;;;;;4959366;28;20230;-81
2020/12/19 04:33:24;;;;;;;27.27;22.23;;;5.40;99.90;;;;;;4964779;28;20294;-81
2020/12/19 04:35:50;;;;;;;29.60;23.53;;;5.30;99.90;;;;;;4975995;28;20204;-80
2020/12/19 04:38:17;;;;;;;30.00;24.93;;;5.20;99.90;;;;;;4971755;28;20252;-81
2020/12/19 04:40:45;;;;;;;27.20;22.47;;;5.20;99.90;;;;;;4973828;28;20769;-81
2020/12/19 04:43:15;;;;;;;34.05;25.27;;;5.20;99.90;;;;;;4978027;28;20198;-82
2020/12/19 04:45:45;;;;;;;29.27;24.17;;;5.10;99.90;;;;;;4978488;28;20273;-81
2020/12/19 04:48:11;;;;;;;28.60;22.97;;;5.10;99.90;;;;;;4974636;28;20211;-81
2020/12/19 04:50:39;;;;;;;27.00;22.37;;;5.10;99.90;;;;;;4981642;28;20222;-81
2020/12/19 04:53:16;;;;;;;30.57;23.47;;;5.10;99.90;;;;;;4993455;28;20193;-83
2020/12/19 04:55:45;;;;;;;28.17;23.80;;;5.20;99.90;;;;;;4985487;28;20348;-82
2020/12/19 04:58:13;;;;;;;28.30;23.27;;;5.20;99.90;;;;;;4988883;28;20205;-82
2020/12/19 05:00:41;;;;;;;27.52;23.67;;;5.20;99.90;;;;;;4983803;28;20238;-81
2020/12/19 05:03:08;;;;;;;29.30;23.90;;;5.10;99.90;;;;;;4970027;28;20242;-81
2020/12/19 05:05:36;;;;;;;31.90;24.57;;;5.10;99.90;;;;;;4971898;28;20217;-81
2020/12/19 05:08:03;;;;;;;32.17;24.27;;;5.00;99.90;;;;;;4962786;28;20286;-81
2020/12/19 05:10:30;;;;;;;32.37;24.17;;;5.00;99.90;;;;;;4952595;28;20225;-81
2020/12/19 05:12:57;;;;;;;33.30;25.63;;;5.00;99.90;;;;;;4953433;28;20746;-80
2020/12/19 05:15:24;;;;;;;31.80;25.93;;;5.10;99.90;;;;;;4959381;28;20678;-81
2020/12/19 05:17:52;;;;;;;38.07;28.67;;;5.10;99.90;;;;;;4952783;28;20198;-81
2020/12/19 05:20:20;;;;;;;34.10;28.53;;;5.20;99.90;;;;;;4957808;28;20295;-80
2020/12/19 05:22:48;;;;;;;33.83;27.60;;;5.20;99.90;;;;;;4953106;28;20575;-81
2020/12/19 05:25:17;;;;;;;30.83;25.90;;;5.10;99.90;;;;;;4964259;28;20209;-81
2020/12/19 05:27:46;;;;;;;32.13;25.67;;;5.10;99.90;;;;;;4971256;28;20207;-81
2020/12/19 05:30:14;;;;;;;35.23;26.30;;;5.10;99.90;;;;;;4970240;28;20233;-82
2020/12/19 05:32:45;;;;;;;30.50;24.23;;;5.10;99.90;;;;;;4952849;28;20252;-81
2020/12/19 05:35:13;;;;;;;29.63;23.33;;;5.00;99.90;;;;;;4968245;28;20389;-81
2020/12/19 05:37:39;;;;;;;30.90;25.13;;;5.00;99.90;;;;;;4961733;28;20233;-81
2020/12/19 05:40:10;;;;;;;31.40;25.43;;;5.00;99.90;;;;;;4959657;28;20207;-81
2020/12/19 05:42:39;;;;;;;35.40;28.67;;;5.00;99.90;;;;;;4989447;28;20198;-81
2020/12/19 05:45:16;;;;;;;31.45;26.02;;;5.10;99.90;;;;;;4991500;28;20183;-82
2020/12/19 05:47:43;;;;;;;34.30;25.80;;;5.20;99.90;;;;;;4975475;28;20187;-80
2020/12/19 05:50:10;;;;;;;30.57;23.17;;;5.30;99.90;;;;;;4986662;28;20182;-80
2020/12/19 05:52:38;;;;;;;31.47;25.50;;;5.10;99.90;;;;;;4986035;28;20187;-81
2020/12/19 05:55:08;;;;;;;34.30;24.93;;;5.10;99.90;;;;;;4973996;28;20446;-82
2020/12/19 05:57:36;;;;;;;32.13;23.87;;;5.10;99.90;;;;;;4984541;28;20646;-82
2020/12/19 06:00:06;;;;;;;36.83;27.70;;;5.10;99.90;;;;;;4974071;28;20205;-81
2020/12/19 06:02:35;;;;;;;32.07;26.43;;;5.10;99.90;;;;;;4972933;28;20201;-81
2020/12/19 06:05:05;;;;;;;31.35;24.77;;;5.10;99.90;;;;;;4957605;28;20265;-81
2020/12/19 06:07:36;;;;;;;33.67;26.30;;;5.00;99.90;;;;;;4959584;28;20203;-81
2020/12/19 06:10:04;;;;;;;30.50;24.57;;;4.80;99.90;;;;;;4958330;28;20206;-81
2020/12/19 06:12:50;;;;;;;32.00;25.07;;;4.80;99.90;;;;;;4957708;28;20233;-81
2020/12/19 06:15:26;;;;;;;30.20;23.90;;;4.80;99.90;;;;;;4968541;28;20302;-81
2020/12/19 06:18:00;;;;;;;29.85;23.17;;;4.60;99.90;;;;;;4984600;28;20177;-81
2020/12/19 06:20:29;;;;;;;29.90;24.20;;;4.60;99.90;;;;;;4993138;28;20245;-83
2020/12/19 06:22:56;;;;;;;30.30;24.20;;;4.60;99.90;;;;;;4970298;28;20227;-82
2020/12/19 06:25:42;;;;;;;36.80;26.20;;;4.50;99.90;;;;;;4983046;28;20670;-82
2020/12/19 06:28:10;;;;;;;32.73;24.53;;;4.70;99.90;;;;;;4974052;28;20213;-81
2020/12/19 06:30:37;;;;;;;27.53;24.13;;;4.70;99.90;;;;;;4956680;28;20210;-81
2020/12/19 06:33:16;;;;;;;33.93;26.00;;;4.70;99.90;;;;;;4956809;28;20630;-81
2020/12/19 06:35:51;;;;;;;33.43;26.60;;;4.60;99.90;;;;;;4972619;28;20198;-81
2020/12/19 06:38:40;;;;;;;34.90;26.47;;;4.60;99.90;;;;;;4960623;28;20693;-81
2020/12/19 06:41:06;;;;;;;34.77;26.97;;;4.70;99.90;;;;;;4954462;28;20267;-81
2020/12/19 06:43:33;;;;;;;31.77;25.20;;;4.60;99.90;;;;;;4970788;28;20208;-81
2020/12/19 06:45:59;;;;;;;33.70;26.07;;;4.70;99.90;;;;;;4971052;28;20277;-81
2020/12/19 06:48:35;;;;;;;31.42;24.20;;;4.70;99.90;;;;;;4964060;28;20206;-80
2020/12/19 06:51:03;;;;;;;36.20;26.47;;;4.80;99.90;;;;;;4950068;29;20271;-81
2020/12/19 06:53:30;;;;;;;36.80;27.00;;;4.70;99.90;;;;;;4951146;29;20207;-80
2020/12/19 06:55:57;;;;;;;35.60;25.67;;;4.70;99.90;;;;;;4962913;28;20195;-81
2020/12/19 06:58:31;;;;;;;35.70;26.27;;;4.60;99.90;;;;;;4970814;28;20601;-80
2020/12/19 07:00:58;;;;;;;35.23;26.40;;;4.60;99.90;;;;;;4969527;28;20713;-81
2020/12/19 07:03:41;;;;;;;35.83;26.50;;;4.70;99.90;;;;;;4958684;28;20226;-82
2020/12/19 07:06:09;;;;;;;35.67;26.10;;;4.70;99.90;;;;;;4976948;28;20304;-81
2020/12/19 07:08:36;;;;;;;36.87;28.53;;;4.70;99.90;;;;;;4976448;28;20202;-79
2020/12/19 07:11:03;;;;;;;40.33;28.13;;;4.80;99.90;;;;;;4957523;28;20309;-80
2020/12/19 07:13:50;;;;;;;36.10;26.50;;;4.70;99.90;;;;;;4956821;28;20191;-80
2020/12/19 07:16:43;;;;;;;34.53;26.80;;;4.80;99.90;;;;;;4956351;28;20205;-80
2020/12/19 07:19:24;;;;;;;37.40;24.63;;;4.80;99.90;;;;;;4966223;28;20208;-81
2020/12/19 07:21:55;;;;;;;30.77;23.97;;;4.90;99.90;;;;;;4973912;28;20561;-81
2020/12/19 07:24:22;;;;;;;31.07;22.67;;;4.90;99.90;;;;;;4973223;28;20178;-79
2020/12/19 07:26:50;;;;;;;28.60;22.40;;;4.90;99.90;;;;;;4955418;28;20240;-81
2020/12/19 07:29:21;;;;;;;33.73;24.80;;;5.00;99.90;;;;;;4955136;28;20203;-80
2020/12/19 07:31:50;;;;;;;32.42;24.75;;;5.00;99.90;;;;;;4954420;29;20242;-80
2020/12/19 07:34:18;;;;;;;30.93;24.03;;;5.00;99.90;;;;;;4961660;28;20190;-80
2020/12/19 07:36:46;;;;;;;34.37;24.40;;;5.00;99.90;;;;;;4954801;28;20710;-80
2020/12/19 07:39:14;;;;;;;32.83;23.92;;;5.10;99.90;;;;;;4963080;28;20220;-80
2020/12/19 07:41:43;;;;;;;34.20;25.57;;;5.00;99.90;;;;;;4957657;28;20214;-80
2020/12/19 07:44:15;;;;;;;31.57;25.00;;;5.10;99.90;;;;;;4958025;28;20213;-80
2020/12/19 07:46:52;;;;;;;35.53;25.57;;;5.00;99.90;;;;;;4970774;28;20220;-79
2020/12/19 07:49:32;;;;;;;32.00;25.33;;;5.00;99.90;;;;;;4972833;28;20255;-79
2020/12/19 07:52:17;;;;;;;29.87;24.33;;;5.00;99.90;;;;;;4966081;28;20214;-80
2020/12/19 07:54:56;;;;;;;30.03;22.80;;;5.00;99.90;;;;;;4957572;28;20232;-80
2020/12/19 07:57:23;;;;;;;33.60;23.87;;;5.00;99.90;;;;;;4960015;28;20237;-80
2020/12/19 07:59:52;;;;;;;34.83;24.27;;;4.90;99.90;;;;;;4964624;28;20206;-79
2020/12/19 08:02:19;;;;;;;32.93;25.60;;;5.00;99.90;;;;;;4936243;28;20250;-80
2020/12/19 08:04:53;;;;;;;29.60;22.53;;;4.90;99.90;;;;;;4954056;28;20590;-81
2020/12/19 08:07:22;;;;;;;30.83;24.13;;;4.90;99.90;;;;;;4957846;28;20202;-80
2020/12/19 08:09:57;;;;;;;30.67;22.43;;;4.90;99.90;;;;;;4974566;28;20590;-81
2020/12/19 08:12:24;;;;;;;30.87;23.83;;;4.90;99.90;;;;;;4957751;28;20222;-79
2020/12/19 08:14:52;;;;;;;27.40;22.23;;;4.90;99.90;;;;;;4967134;28;20202;-80
2020/12/19 08:17:19;;;;;;;31.20;22.50;;;4.90;99.90;;;;;;4972578;28;20216;-80
2020/12/19 08:19:48;;;;;;;30.27;22.83;;;5.00;99.90;;;;;;4964082;28;20209;-81
2020/12/19 08:22:16;;;;;;;26.33;20.90;;;5.00;99.90;;;;;;4973249;28;20218;-81
2020/12/19 08:24:47;;;;;;;28.90;22.03;;;5.00;99.90;;;;;;5036837;28;20747;-81
2020/12/19 08:27:33;;;;;;;28.98;22.63;;;5.20;99.90;;;;;;4996261;28;20202;-81
2020/12/19 08:30:14;;;;;;;28.57;21.93;;;5.30;99.90;;;;;;5008387;28;20198;-81
2020/12/19 08:32:43;;;;;;;27.63;21.53;;;5.30;99.90;;;;;;5057008;28;20202;-79
2020/12/19 08:35:10;;;;;;;29.10;22.03;;;5.40;99.90;;;;;;5050757;28;20277;-78
2020/12/19 08:37:37;;;;;;;27.33;21.77;;;5.60;99.90;;;;;;5028935;28;20252;-79
2020/12/19 08:40:10;;;;;;;25.23;19.70;;;6.10;99.90;;;;;;5007985;28;20238;-79
2020/12/19 08:42:39;;;;;;;24.10;20.80;;;6.50;99.90;;;;;;5013770;28;20210;-79
2020/12/19 08:45:23;;;;;;;23.85;19.17;;;6.50;99.90;;;;;;4965557;28;20230;-81
2020/12/19 08:47:52;;;;;;;21.77;19.10;;;6.60;99.90;;;;;;4979630;28;20213;-80
2020/12/19 08:50:22;;;;;;;20.23;17.03;;;6.90;99.90;;;;;;5016569;28;20202;-80
2020/12/19 08:53:03;;;;;;;19.70;17.53;;;7.40;99.90;;;;;;4978197;28;20202;-79
2020/12/19 08:55:31;;;;;;;20.47;18.13;;;7.60;99.90;;;;;;5030438;28;20199;-79
2020/12/19 08:57:59;;;;;;;19.10;15.18;;;8.00;99.90;;;;;;4985944;28;20213;-79
2020/12/19 09:00:34;;;;;;;20.60;15.73;;;7.60;99.90;;;;;;4982088;28;20217;-80
2020/12/19 09:03:06;;;;;;;19.77;17.60;;;7.40;99.90;;;;;;5017697;28;20205;-78
2020/12/19 09:05:38;;;;;;;18.50;16.23;;;7.20;99.90;;;;;;5072565;28;20407;-79
2020/12/19 09:08:08;;;;;;;20.60;16.87;;;7.00;99.90;;;;;;5017828;28;20205;-79
2020/12/19 09:10:37;;;;;;;19.60;16.75;;;6.60;99.90;;;;;;5021366;28;20218;-79
2020/12/19 09:13:14;;;;;;;19.27;16.10;;;6.70;99.90;;;;;;5021152;28;20206;-81
2020/12/19 09:15:43;;;;;;;21.40;16.47;;;6.70;99.90;;;;;;5048534;28;20194;-85
2020/12/19 09:18:31;;;;;;;22.60;17.27;;;7.40;99.90;;;;;;4991326;28;20205;-83
2020/12/19 09:20:59;;;;;;;21.30;17.75;;;7.80;99.90;;;;;;5022678;28;20313;-84
2020/12/19 09:23:27;;;;;;;20.70;16.60;;;7.50;99.90;;;;;;5000842;28;20232;-85
2020/12/19 09:25:57;;;;;;;18.90;16.63;;;7.30;99.90;;;;;;4987053;28;20182;-84
2020/12/19 09:28:25;;;;;;;20.27;14.90;;;7.10;99.90;;;;;;5004841;28;20202;-84
2020/12/19 09:30:52;;;;;;;20.53;18.13;;;6.90;99.90;;;;;;5034886;28;20277;-84
2020/12/19 09:33:19;;;;;;;16.47;14.60;;;6.80;99.90;;;;;;4998861;28;20176;-83
2020/12/19 09:35:47;;;;;;;18.17;15.30;;;6.90;99.90;;;;;;5072503;28;20175;-84
2020/12/19 09:38:15;;;;;;;20.33;16.40;;;6.80;99.90;;;;;;4990854;28;20192;-84
2020/12/19 09:40:42;;;;;;;20.90;16.50;;;6.80;99.90;;;;;;4986634;28;20230;-80
2020/12/19 09:43:11;;;;;;;20.17;16.70;;;7.00;99.90;;;;;;4991907;28;20534;-80
2020/12/19 09:45:38;;;;;;;20.77;17.17;;;6.90;99.90;;;;;;5050312;28;20203;-80
2020/12/19 09:48:07;;;;;;;19.83;16.20;;;7.00;99.90;;;;;;4969241;28;20199;-81
2020/12/19 09:50:37;;;;;;;18.47;15.63;;;7.00;99.90;;;;;;5058497;28;20226;-81
2020/12/19 09:53:05;;;;;;;19.10;15.47;;;7.20;99.90;;;;;;4965574;28;20516;-80
2020/12/19 09:55:34;;;;;;;17.70;14.97;;;7.30;99.90;;;;;;5014101;28;20198;-80
2020/12/19 09:58:04;;;;;;;18.47;14.53;;;7.40;99.90;;;;;;4998364;28;20211;-78
2020/12/19 10:00:32;;;;;;;16.90;14.47;;;7.40;99.90;;;;;;4994631;28;20279;-80
2020/12/19 10:03:02;;;;;;;17.87;15.10;;;7.70;99.90;;;;;;4973225;28;20268;-81
2020/12/19 10:05:36;;;;;;;16.00;13.87;;;7.90;99.90;;;;;;4994049;28;20186;-81
2020/12/19 10:08:04;;;;;;;15.60;13.95;;;8.00;99.90;;;;;;4992911;28;20189;-79
2020/12/19 10:10:34;;;;;;;17.67;13.90;;;7.90;99.90;;;;;;4985896;28;20238;-79
2020/12/19 10:13:03;;;;;;;16.13;13.17;;;8.40;99.90;;;;;;5069547;28;20232;-82
2020/12/19 10:15:31;;;;;;;15.47;13.63;;;9.20;99.90;;;;;;5035207;28;20250;-82
2020/12/19 10:17:58;;;;;;;14.43;12.87;;;10.50;99.90;;;;;;4992427;28;20200;-80
2020/12/19 10:20:25;;;;;;;15.15;13.23;;;11.10;99.90;;;;;;5000242;28;20221;-81
2020/12/19 10:22:51;;;;;;;12.75;11.00;;;11.60;99.90;;;;;;4972639;28;20204;-80
2020/12/19 10:25:18;;;;;;;12.05;10.38;;;11.80;99.90;;;;;;4973371;28;20256;-81
2020/12/19 10:27:45;;;;;;;11.95;10.75;;;12.00;99.90;;;;;;4986669;28;20203;-79
2020/12/19 10:30:11;;;;;;;12.45;10.85;;;12.70;99.90;;;;;;5003396;28;20205;-80
2020/12/19 10:32:39;;;;;;;12.45;10.98;;;13.10;99.90;;;;;;5058653;28;20197;-80
2020/12/19 10:35:06;;;;;;;13.05;11.65;;;13.40;99.90;;;;;;5064043;28;20198;-80
2020/12/19 10:37:33;;;;;;;11.95;10.75;;;13.90;99.90;;;;;;5006216;28;20205;-81
2020/12/19 10:40:00;;;;;;;12.27;9.70;;;13.40;99.90;;;;;;4991848;28;20284;-81
2020/12/19 10:42:27;;;;;;;11.65;10.55;;;13.00;99.90;;;;;;4968028;28;20233;-80
2020/12/19 10:44:53;;;;;;;10.38;9.38;;;13.80;99.90;;;;;;5022619;28;20577;-80
2020/12/19 10:47:20;;;;;;;10.20;9.13;;;13.70;99.90;;;;;;4997106;28;20485;-79
2020/12/19 10:49:47;;;;;;;11.02;9.35;;;13.90;99.90;;;;;;5055256;28;20206;-80
2020/12/19 10:52:14;;;;;;;10.55;9.55;;;14.20;99.90;;;;;;4972469;28;20221;-80
2020/12/19 10:54:41;;;;;;;11.77;10.57;;;15.00;99.90;;;;;;4958128;28;20213;-80
2020/12/19 10:57:07;;;;;;;9.20;8.40;;;15.50;99.90;;;;;;4980888;28;20739;-80
2020/12/19 10:59:34;;;;;;;9.75;8.65;;;15.50;99.90;;;;;;4961989;28;20526;-79
2020/12/19 11:02:00;;;;;;;10.38;9.27;;;15.70;99.90;;;;;;4946933;28;20233;-81
2020/12/19 11:04:27;;;;;;;9.82;8.82;;;15.90;99.90;;;;;;4974325;28;20206;-79
2020/12/19 11:06:54;;;;;;;12.30;9.88;;;16.00;99.90;;;;;;5039436;28;20232;-79
2020/12/19 11:09:21;;;;;;;9.68;8.77;;;15.90;99.90;;;;;;5020982;28;20290;-81
2020/12/19 11:11:52;;;;;;;8.48;7.65;;;16.10;99.90;;;;;;4962069;28;20584;-81
2020/12/19 11:14:21;;;;;;;10.65;9.57;;;16.20;99.90;;;;;;4973809;28;20438;-79
2020/12/19 11:16:47;;;;;;;12.18;10.98;;;15.10;99.90;;;;;;4964418;28;20209;-80
2020/12/19 11:19:14;;;;;;;9.98;8.98;;;14.90;99.90;;;;;;5054431;28;20252;-81
2020/12/19 11:21:44;;;;;;;10.68;9.57;;;14.80;99.90;;;;;;4982329;28;20323;-79
2020/12/19 11:24:12;;;;;;;11.00;9.90;;;14.00;99.90;;;;;;4953840;28;20225;-80
2020/12/19 11:26:40;;;;;;;10.88;9.75;;;13.70;99.90;;;;;;4969775;28;20283;-79
2020/12/19 11:29:10;;;;;;;9.98;8.98;;;13.50;99.90;;;;;;4973614;28;20297;-80
2020/12/19 11:31:38;;;;;;;10.60;9.30;;;12.70;99.90;;;;;;4970660;28;20235;-79
2020/12/19 11:34:05;;;;;;;11.15;9.43;;;12.30;99.90;;;;;;4964265;28;20212;-79
2020/12/19 11:36:38;;;;;;;12.43;11.18;;;12.40;99.90;;;;;;4967922;28;20269;-79
2020/12/19 11:39:05;;;;;;;10.90;9.32;;;12.10;99.90;;;;;;4975678;28;20204;-82
2020/12/19 11:41:33;;;;;;;11.43;10.32;;;12.10;99.90;;;;;;4973803;28;20226;-81
2020/12/19 11:44:00;;;;;;;9.35;8.55;;;12.10;99.90;;;;;;4970765;28;20190;-81
2020/12/19 11:46:27;;;;;;;10.10;9.02;;;11.90;99.90;;;;;;5057152;28;20212;-81
2020/12/19 11:48:53;;;;;;;9.65;8.60;;;11.80;99.90;;;;;;4974191;28;20200;-81
2020/12/19 11:51:26;;;;;;;11.65;8.80;;;11.50;99.90;;;;;;4969515;28;20235;-82
2020/12/19 11:53:52;;;;;;;9.10;8.10;;;11.50;99.90;;;;;;4964740;28;20205;-80
2020/12/19 11:56:19;;;;;;;10.07;8.93;;;11.50;99.90;;;;;;4983550;28;20213;-81
2020/12/19 11:58:46;;;;;;;10.15;9.10;;;11.80;99.90;;;;;;5070620;28;20257;-82
2020/12/19 12:01:12;;;;;;;10.20;9.20;;;11.50;99.90;;;;;;5073664;28;20237;-81
2020/12/19 12:03:39;;;;;;;12.27;8.77;;;11.40;99.90;;;;;;4993304;28;20223;-79
2020/12/19 12:06:05;;;;;;;9.43;8.60;;;11.40;99.90;;;;;;4991844;28;20230;-80
2020/12/19 12:08:32;;;;;;;9.65;8.48;;;11.60;99.90;;;;;;5053958;28;20241;-79
2020/12/19 12:10:58;;;;;;;8.65;7.75;;;11.70;99.90;;;;;;5051262;28;20216;-81
2020/12/19 12:13:25;;;;;;;10.05;9.05;;;11.60;99.90;;;;;;5075930;28;20202;-86
2020/12/19 12:15:52;;;;;;;10.95;9.82;;;11.10;99.90;;;;;;4979999;28;20296;-82
2020/12/19 12:18:18;;;;;;;10.73;8.60;;;10.90;99.90;;;;;;5034185;28;20674;-83
2020/12/19 12:20:45;;;;;;;9.43;8.43;;;11.00;99.90;;;;;;4996980;28;20224;-83
2020/12/19 12:23:12;;;;;;;9.27;8.38;;;11.40;99.90;;;;;;5013538;28;20206;-82
2020/12/19 12:25:39;;;;;;;10.02;8.98;;;11.30;99.90;;;;;;4997008;28;20278;-82
2020/12/19 12:28:07;;;;;;;11.63;8.18;;;11.20;99.90;;;;;;5015680;28;20754;-80
2020/12/19 12:30:34;;;;;;;10.10;9.02;;;11.10;99.90;;;;;;5002811;28;20240;-78
2020/12/19 12:33:01;;;;;;;10.93;9.13;;;11.20;99.90;;;;;;5005957;28;20208;-79
2020/12/19 12:35:28;;;;;;;13.38;8.95;;;11.40;99.90;;;;;;4977143;28;20279;-78
2020/12/19 12:37:55;;;;;;;9.70;8.43;;;11.40;99.90;;;;;;4964300;28;20208;-80
2020/12/19 12:40:21;;;;;;;9.13;8.20;;;11.50;99.90;;;;;;4975052;28;20208;-82
2020/12/19 12:42:48;;;;;;;8.80;7.90;;;11.40;99.90;;;;;;4970824;28;20213;-81
2020/12/19 12:45:14;;;;;;;9.15;7.22;;;11.40;99.90;;;;;;4957244;28;20204;-81